Time;durP1;ratioP1;P1;durP2;ratioP2;P2;SDS_P1;SDS_P2;PMS_P1;PMS_P2;Temp;Humidity;BMP_temperature;BMP_pressure;BME280_temperature;BME280_humidity;BME280_pressure;Samples;Min_cycle;Max_cycle;Signal;HPM_P1;HPM_P2
2020/12/12 00:00:13;;;;;;;2.67;2.50;;;;;;;4.11;77.26;98813.53;4330995;33;31884;-83
2020/12/12 00:02:41;;;;;;;8.88;4.90;;;;;;;4.14;77.31;98813.25;4308331;33;34849;-83
2020/12/12 00:05:09;;;;;;;7.78;3.60;;;;;;;4.08;77.38;98811.13;4333660;33;35131;-83
2020/12/12 00:07:37;;;;;;;;;;;;;;;4.08;77.53;98813.75;4309101;33;31437;-83
2020/12/12 00:10:04;;;;;;;1.83;1.73;;;;;;;4.21;77.09;98816.22;4325900;33;33252;-83
2020/12/12 00:12:32;;;;;;;6.05;5.35;;;;;;;3.98;77.95;98812.03;4334092;33;34543;-83
2020/12/12 00:14:59;;;;;;;4.05;3.75;;;;;;;3.75;78.99;98806.03;4333852;33;33125;-83
2020/12/12 00:17:27;;;;;;;10.15;5.35;;;;;;;4.00;78.20;98808.34;4338749;33;32818;-83
2020/12/12 00:19:56;;;;;;;7.05;3.70;;;;;;;4.25;76.90;98807.13;4309552;33;31898;-83
2020/12/12 00:22:24;;;;;;;9.90;4.60;;;;;;;4.10;77.71;98805.75;4343507;33;33887;-83
2020/12/12 00:25:05;;;;;;;5.15;4.75;;;;;;;4.03;77.42;98801.97;4330144;33;34331;-83
2020/12/12 00:27:32;;;;;;;4.47;3.17;;;;;;;3.92;78.37;98796.75;4332766;33;33382;-83
2020/12/12 00:29:59;;;;;;;15.80;4.55;;;;;;;3.93;78.58;98787.91;4332717;33;33370;-83
2020/12/12 00:32:27;;;;;;;;;;;;;;;3.76;78.90;98785.81;4319624;33;33625;-83
2020/12/12 00:34:54;;;;;;;7.23;4.17;;;;;;;3.85;78.70;98796.44;4329972;33;32691;-83
2020/12/12 00:37:22;;;;;;;5.87;5.37;;;;;;;4.03;78.18;98788.78;4336768;33;33135;-83
2020/12/12 00:39:50;;;;;;;15.25;4.93;;;;;;;4.12;77.70;98788.87;4320677;33;33744;-83
2020/12/12 00:42:17;;;;;;;5.55;5.00;;;;;;;3.92;78.66;98786.22;4333413;33;33905;-83
2020/12/12 00:44:44;;;;;;;6.22;4.75;;;;;;;4.02;77.90;98785.34;4321139;33;34100;-83
2020/12/12 00:47:12;;;;;;;7.70;5.97;;;;;;;3.84;78.67;98781.63;4336531;33;31474;-83
2020/12/12 00:49:41;;;;;;;2.30;2.20;;;;;;;4.21;77.45;98779.38;4338540;33;32407;-83
2020/12/12 00:52:08;;;;;;;9.50;6.65;;;;;;;3.94;78.38;98781.66;4333211;33;35004;-83
2020/12/12 00:54:36;;;;;;;5.53;5.03;;;;;;;3.98;78.09;98773.41;4320806;33;32813;-83
2020/12/12 00:57:04;;;;;;;6.32;3.75;;;;;;;3.97;78.40;98768.28;4344244;33;34154;-83
2020/12/12 00:59:32;;;;;;;;;;;;;;;3.63;79.71;98772.88;4313106;33;32256;-83
2020/12/12 01:02:00;;;;;;;4.55;4.18;;;;;;;3.66;79.80;98769.13;4309630;33;35876;-83
2020/12/12 01:04:27;;;;;;;3.72;3.42;;;;;;;3.88;79.16;98766.41;4344773;33;34171;-83
2020/12/12 01:06:55;;;;;;;8.27;6.30;;;;;;;3.89;78.95;98771.53;4332820;33;33448;-83
2020/12/12 01:09:23;;;;;;;1.67;1.58;;;;;;;3.86;78.90;98766.53;4308662;33;32423;-83
2020/12/12 01:11:51;;;;;;;11.32;4.53;;;;;;;3.84;78.81;98770.25;4320996;33;33655;-83
2020/12/12 01:14:19;;;;;;;5.65;4.95;;;;;;;3.85;78.95;98764.00;4332377;33;35033;-83
2020/12/12 01:16:47;;;;;;;3.62;2.72;;;;;;;3.75;79.27;98766.59;4297029;33;33557;-83
2020/12/12 01:19:15;;;;;;;5.00;4.53;;;;;;;4.07;77.82;98772.63;4327269;33;34475;-83
2020/12/12 01:21:42;;;;;;;14.18;3.42;;;;;;;4.11;78.01;98774.06;4322811;33;34826;-83
2020/12/12 01:24:15;;;;;;;3.92;2.97;;;;;;;4.27;76.91;98763.06;4333328;33;35197;-83
2020/12/12 01:26:45;;;;;;;5.37;2.58;;;;;;;3.91;78.65;98766.16;4320691;33;32808;-83
2020/12/12 01:29:13;;;;;;;4.53;4.20;;;;;;;3.96;78.12;98770.06;4332419;33;33436;-83
2020/12/12 01:31:41;;;;;;;4.30;3.95;;;;;;;3.80;78.78;98763.59;4332253;33;33221;-83
2020/12/12 01:34:08;;;;;;;2.28;2.05;;;;;;;4.04;77.79;98761.50;4343741;33;34272;-83
2020/12/12 01:36:36;;;;;;;9.75;4.28;;;;;;;4.04;77.99;98765.00;4320624;33;33977;-83
2020/12/12 01:39:03;;;;;;;7.68;5.00;;;;;;;4.11;78.05;98762.69;4345387;33;32189;-83
2020/12/12 01:41:31;;;;;;;6.00;2.12;;;;;;;4.09;77.85;98757.56;4335748;33;35515;-83
2020/12/12 01:43:59;;;;;;;9.02;5.30;;;;;;;3.89;78.80;98752.28;4333024;33;34184;-83
2020/12/12 01:46:27;;;;;;;5.50;4.25;;;;;;;4.01;78.42;98752.09;4333062;33;34063;-83
2020/12/12 01:48:56;;;;;;;4.22;3.92;;;;;;;4.05;78.23;98750.06;4336114;33;32908;-84
2020/12/12 01:51:26;;;;;;;8.38;3.20;;;;;;;4.05;78.21;98757.94;4338118;33;35824;-83
2020/12/12 01:53:58;;;;;;;5.25;4.75;;;;;;;4.03;78.28;98758.06;4332732;33;33175;-83
2020/12/12 01:56:26;;;;;;;6.22;3.12;;;;;;;4.11;77.82;98750.37;4332773;33;31512;-83
2020/12/12 01:58:55;;;;;;;9.18;4.15;;;;;;;3.95;79.21;98754.41;4334953;33;33624;-83
2020/12/12 02:01:23;;;;;;;3.00;2.87;;;;;;;4.21;77.98;98756.53;4321462;33;34080;-83
2020/12/12 02:03:51;;;;;;;3.60;3.22;;;;;;;4.35;77.35;98756.16;4343998;33;34390;-83
2020/12/12 02:06:19;;;;;;;;;;;;;;;4.27;77.59;98747.25;4305907;33;31623;-83
2020/12/12 02:08:52;;;;;;;2.53;2.35;;;;;;;4.36;77.41;98757.00;4317893;33;34267;-83
2020/12/12 02:11:20;;;;;;;3.10;2.80;;;;;;;4.18;77.77;98754.16;4313349;33;34864;-83
2020/12/12 02:13:48;;;;;;;2.50;2.30;;;;;;;4.43;76.91;98745.81;4333891;33;34411;-84
2020/12/12 02:16:17;;;;;;;1.77;1.67;;;;;;;4.19;78.06;98754.97;4333758;33;32515;-83
2020/12/12 02:18:45;;;;;;;5.18;2.05;;;;;;;4.27;77.54;98745.44;4321067;33;32701;-83
2020/12/12 02:21:13;;;;;;;4.45;2.83;;;;;;;4.36;77.45;98754.38;4333456;33;35018;-83
2020/12/12 02:23:41;;;;;;;1.52;1.02;;;;;;;4.47;76.91;98741.97;4320735;33;32427;-83
2020/12/12 02:26:08;;;;;;;;;;;;;;;4.73;75.85;98734.44;4343738;33;33349;-83
2020/12/12 02:28:49;;;;;;;4.97;1.45;;;;;;;4.36;77.38;98738.59;4324676;33;34573;-83
2020/12/12 02:31:17;;;;;;;1.60;1.50;;;;;;;4.51;76.80;98732.00;4319950;33;33839;-83
2020/12/12 02:33:44;;;;;;;2.70;1.77;;;;;;;4.41;76.92;98734.59;4320329;33;32996;-83
2020/12/12 02:36:12;;;;;;;3.45;3.20;;;;;;;4.28;77.12;98727.87;4344916;33;34179;-83
2020/12/12 02:38:42;;;;;;;3.97;2.92;;;;;;;4.33;76.90;98736.22;4344783;33;34256;-83
2020/12/12 02:41:10;;;;;;;2.10;2.00;;;;;;;4.31;76.41;98732.88;4322860;33;34365;-83
2020/12/12 02:43:38;;;;;;;3.47;2.17;;;;;;;3.90;78.19;98732.91;4320083;33;32510;-83
2020/12/12 02:46:05;;;;;;;3.22;3.03;;;;;;;4.03;78.10;98730.91;4324803;33;32713;-83
2020/12/12 02:48:33;;;;;;;3.03;2.78;;;;;;;4.28;76.98;98723.44;4337285;33;33553;-83
2020/12/12 02:51:00;;;;;;;2.30;2.13;;;;;;;4.17;77.49;98720.06;4332999;33;34851;-83
2020/12/12 02:53:28;;;;;;;1.23;1.23;;;;;;;3.84;78.95;98728.16;4341849;33;33262;-83
2020/12/12 02:55:55;;;;;;;2.92;1.17;;;;;;;4.17;78.01;98733.22;4332296;33;33322;-83
2020/12/12 02:58:22;;;;;;;4.80;4.17;;;;;;;4.34;77.18;98728.19;4320229;33;33621;-83
2020/12/12 03:00:50;;;;;;;5.70;5.20;;;;;;;4.40;77.15;98730.28;4337566;33;34794;-83
2020/12/12 03:03:17;;;;;;;4.45;4.10;;;;;;;4.67;75.95;98737.59;4331827;33;33795;-83
2020/12/12 03:05:45;;;;;;;4.20;2.30;;;;;;;4.51;76.68;98735.47;4320414;33;33476;-83
2020/12/12 03:08:13;;;;;;;2.12;1.92;;;;;;;4.73;75.72;98735.25;4320706;33;34506;-83
2020/12/12 03:10:40;;;;;;;1.83;1.73;;;;;;;4.62;76.45;98726.66;4320273;33;35699;-83
2020/12/12 03:13:08;;;;;;;2.25;1.75;;;;;;;4.67;76.14;98735.81;4342191;33;34118;-83
2020/12/12 03:15:35;;;;;;;3.97;2.10;;;;;;;4.65;76.29;98731.62;4328165;33;31893;-83
2020/12/12 03:18:02;;;;;;;7.10;2.00;;;;;;;4.51;76.79;98732.84;4343149;33;33556;-83
2020/12/12 03:20:30;;;;;;;2.72;2.53;;;;;;;4.54;77.02;98726.47;4332156;33;35175;-83
2020/12/12 03:22:58;;;;;;;7.47;4.22;;;;;;;4.72;76.30;98730.16;4320060;33;34272;-83
2020/12/12 03:25:25;;;;;;;2.75;2.47;;;;;;;4.93;75.39;98729.09;4319786;33;33583;-83
2020/12/12 03:27:52;;;;;;;6.57;3.72;;;;;;;4.50;77.15;98728.53;4319839;33;34132;-83
2020/12/12 03:30:20;;;;;;;1.62;1.52;;;;;;;4.51;77.23;98726.75;4323690;33;35863;-83
2020/12/12 03:32:48;;;;;;;4.22;3.28;;;;;;;4.61;76.95;98724.97;4339279;33;34801;-83
2020/12/12 03:35:15;;;;;;;1.50;1.42;;;;;;;4.87;75.98;98723.50;4319429;33;33563;-83
2020/12/12 03:37:43;;;;;;;2.30;2.20;;;;;;;4.86;75.86;98729.75;4332431;33;33705;-83
2020/12/12 03:40:10;;;;;;;3.50;2.60;;;;;;;4.74;76.37;98720.31;4333813;33;34879;-84
2020/12/12 03:42:37;;;;;;;1.45;1.35;;;;;;;4.68;76.17;98721.66;4325043;33;33218;-83
2020/12/12 03:45:05;;;;;;;2.33;2.17;;;;;;;4.78;76.28;98712.00;4321937;33;33113;-84
2020/12/12 03:47:32;;;;;;;1.77;1.67;;;;;;;4.55;77.39;98709.69;4333602;33;32240;-83
2020/12/12 03:50:00;;;;;;;2.20;1.87;;;;;;;4.55;77.39;98704.44;4335134;33;33836;-83
2020/12/12 03:52:27;;;;;;;3.20;3.00;;;;;;;4.81;76.68;98711.72;4338112;33;33752;-83
2020/12/12 03:54:54;;;;;;;2.57;2.30;;;;;;;4.69;76.86;98712.78;4333901;33;32364;-83
2020/12/12 03:57:22;;;;;;;2.25;1.60;;;;;;;5.06;75.60;98705.09;4318587;33;32957;-83
2020/12/12 03:59:50;;;;;;;2.33;1.15;;;;;;;4.77;76.65;98715.59;4328266;33;33485;-84
2020/12/12 04:02:17;;;;;;;2.30;2.12;;;;;;;5.23;74.73;98709.72;4345132;33;33147;-84
2020/12/12 04:04:45;;;;;;;5.97;1.55;;;;;;;4.85;76.17;98712.28;4309644;33;32804;-83
2020/12/12 04:07:12;;;;;;;2.50;2.30;;;;;;;5.15;74.99;98702.50;4321632;33;34658;-83
2020/12/12 04:09:39;;;;;;;1.55;1.45;;;;;;;5.19;74.80;98705.69;4321044;33;33254;-83
2020/12/12 04:12:07;;;;;;;2.22;1.67;;;;;;;5.08;75.12;98708.47;4321654;33;33139;-83
2020/12/12 04:14:34;;;;;;;9.40;3.62;;;;;;;4.91;75.81;98717.03;4321399;33;31602;-83
2020/12/12 04:17:01;;;;;;;3.17;2.33;;;;;;;5.31;74.46;98717.78;4320431;33;34180;-83
2020/12/12 04:19:29;;;;;;;4.62;2.55;;;;;;;5.36;74.33;98719.03;4334005;33;34429;-83
2020/12/12 04:21:56;;;;;;;1.77;1.67;;;;;;;5.50;73.67;98714.16;4331771;33;34169;-83
2020/12/12 04:24:23;;;;;;;3.03;2.15;;;;;;;5.35;74.18;98720.00;4333662;33;33133;-83
2020/12/12 04:26:51;;;;;;;2.75;2.28;;;;;;;5.34;74.53;98720.97;4341592;33;33329;-83
2020/12/12 04:29:18;;;;;;;2.58;1.33;;;;;;;5.27;74.71;98714.56;4321257;33;34486;-83
2020/12/12 04:31:45;;;;;;;1.98;1.62;;;;;;;5.38;74.46;98714.44;4333325;33;34415;-83
2020/12/12 04:34:14;;;;;;;4.80;3.70;;;;;;;5.13;75.50;98715.00;4341882;33;34262;-83
2020/12/12 04:36:42;;;;;;;2.90;2.42;;;;;;;5.36;74.54;98719.03;4324485;33;34062;-83
2020/12/12 04:39:09;;;;;;;3.85;2.95;;;;;;;5.03;75.83;98716.78;4333265;33;34810;-83
2020/12/12 04:41:37;;;;;;;1.30;0.77;;;;;;;5.28;74.95;98715.44;4321402;33;32677;-83
2020/12/12 04:44:05;;;;;;;3.33;2.25;;;;;;;4.95;75.86;98710.50;4345549;33;33312;-83
2020/12/12 04:46:32;;;;;;;4.10;3.78;;;;;;;4.81;76.66;98709.09;4314046;33;33840;-84
2020/12/12 04:49:00;;;;;;;5.62;2.87;;;;;;;4.94;76.43;98707.06;4312406;33;33566;-83
2020/12/12 04:51:27;;;;;;;2.65;1.50;;;;;;;5.13;75.83;98701.81;4322941;33;33167;-83
2020/12/12 04:53:56;;;;;;;3.55;2.62;;;;;;;5.01;76.12;98707.34;4335754;33;31934;-83
2020/12/12 04:56:26;;;;;;;4.72;4.03;;;;;;;5.28;75.14;98699.59;4337776;33;33512;-83
2020/12/12 04:58:53;;;;;;;3.08;2.87;;;;;;;5.21;75.27;98699.31;4332824;33;34584;-83
2020/12/12 05:01:21;;;;;;;7.70;2.65;;;;;;;5.17;75.38;98700.56;4338053;33;33228;-83
2020/12/12 05:03:49;;;;;;;;;;;;;;;5.18;75.55;98702.22;4318943;33;31699;-83
2020/12/12 05:06:16;;;;;;;0.73;0.73;;;;;;;4.65;77.52;98700.88;4337621;33;34790;-83
2020/12/12 05:08:43;;;;;;;3.42;3.22;;;;;;;4.78;77.21;98704.09;4320300;33;33763;-83
2020/12/12 05:11:11;;;;;;;3.75;3.40;;;;;;;4.70;77.60;98700.47;4321022;33;34593;-83
2020/12/12 05:13:39;;;;;;;7.40;3.25;;;;;;;4.96;76.69;98706.91;4333539;33;34427;-83
2020/12/12 05:16:06;;;;;;;2.80;2.58;;;;;;;4.90;76.98;98699.56;4332902;33;33884;-83
2020/12/12 05:18:34;;;;;;;2.35;2.15;;;;;;;4.82;77.28;98704.66;4332667;33;33271;-83
2020/12/12 05:21:02;;;;;;;;;;;;;;;4.89;76.94;98709.25;4342921;33;33075;-84
2020/12/12 05:23:31;;;;;;;4.20;2.92;;;;;;;4.57;77.85;98697.22;4330563;33;33020;-84
2020/12/12 05:25:59;;;;;;;2.85;2.05;;;;;;;4.67;77.97;98706.00;4335523;33;33920;-84
2020/12/12 05:28:26;;;;;;;2.47;2.28;;;;;;;4.71;77.28;98708.22;4345059;33;34794;-84
2020/12/12 05:30:54;;;;;;;2.83;2.62;;;;;;;4.55;77.79;98704.44;4332865;33;34879;-84
2020/12/12 05:33:25;;;;;;;2.50;2.25;;;;;;;4.64;77.91;98701.81;4332685;33;33750;-84
2020/12/12 05:35:54;;;;;;;0.50;0.50;;;;;;;4.63;77.40;98697.53;4321201;33;34095;-83
2020/12/12 05:38:22;;;;;;;3.40;2.87;;;;;;;4.55;77.53;98699.16;4332849;33;34944;-84
2020/12/12 05:40:51;;;;;;;;;;;;;;;4.57;77.84;98707.75;4333226;33;32589;-84
2020/12/12 05:43:19;;;;;;;2.83;2.72;;;;;;;4.42;78.55;98709.09;4329952;33;31517;-85
2020/12/12 05:45:47;;;;;;;;;;;;;;;4.51;77.89;98700.41;4313966;33;33112;-84
2020/12/12 05:48:15;;;;;;;0.77;0.77;;;;;;;4.49;77.70;98694.41;4320796;33;33642;-84
2020/12/12 05:50:42;;;;;;;1.17;1.08;;;;;;;4.09;79.27;98691.78;4320918;33;34255;-84
2020/12/12 05:53:10;;;;;;;;;;;;;;;3.76;80.68;98707.75;4321035;33;31437;-83
2020/12/12 05:55:38;;;;;;;3.35;2.75;;;;;;;3.86;80.58;98699.94;4321020;33;34264;-83
2020/12/12 05:58:05;;;;;;;;;;;;;;;3.80;80.72;98700.44;4332989;33;34305;-84
2020/12/12 06:00:33;;;;;;;;;;;;;;;3.95;80.12;98704.41;4308248;33;34430;-83
2020/12/12 06:03:29;;;;;;;3.90;1.25;;;;;;;4.32;78.55;98706.41;4322528;33;33843;-84
2020/12/12 06:06:05;;;;;;;2.60;2.15;;;;;;;4.11;79.34;98708.25;4332668;33;32801;-84
2020/12/12 06:08:39;;;;;;;7.75;2.78;;;;;;;4.03;79.58;98709.84;4332587;33;34644;-84
2020/12/12 06:11:09;;;;;;;1.52;1.05;;;;;;;4.14;79.46;98699.28;4308752;33;33449;-83
2020/12/12 06:13:38;;;;;;;1.77;1.67;;;;;;;3.94;79.70;98698.31;4320536;33;33297;-83
2020/12/12 06:16:07;;;;;;;2.17;2.05;;;;;;;3.94;79.48;98694.84;4320459;33;34743;-83
2020/12/12 06:18:48;;;;;;;2.67;2.45;;;;;;;3.80;80.41;98688.13;4332981;33;35816;-83
2020/12/12 06:21:19;;;;;;;4.22;1.67;;;;;;;4.11;79.35;98689.00;4332878;33;34904;-83
2020/12/12 06:23:47;;;;;;;2.60;2.40;;;;;;;4.33;78.30;98691.47;4320802;33;33454;-84
2020/12/12 06:26:17;;;;;;;3.80;3.50;;;;;;;4.34;77.76;98693.13;4332180;33;33583;-83
2020/12/12 06:28:46;;;;;;;3.85;2.03;;;;;;;4.26;77.79;98687.69;4319894;33;33347;-83
2020/12/12 06:31:13;;;;;;;;;;;;;;;4.03;78.45;98688.81;4332920;33;32462;-83
2020/12/12 06:33:53;;;;;;;3.45;2.85;;;;;;;3.91;79.24;98693.34;4328273;33;33820;-83
2020/12/12 06:36:29;;;;;;;1.27;1.08;;;;;;;4.00;78.95;98702.22;4308380;33;31982;-83
2020/12/12 06:39:22;;;;;;;2.42;2.25;;;;;;;3.61;80.05;98698.50;4333996;33;35904;-83
2020/12/12 06:41:53;;;;;;;2.50;2.30;;;;;;;3.59;80.29;98704.87;4332718;33;32671;-83
2020/12/12 06:44:41;;;;;;;2.35;2.20;;;;;;;3.83;79.51;98697.56;4332937;33;34058;-83
2020/12/12 06:47:09;;;;;;;2.40;2.08;;;;;;;3.93;79.08;98698.44;4332541;33;33224;-83
2020/12/12 06:49:41;;;;;;;;;;;;;;;3.76;79.20;98706.91;4333091;33;34803;-83
2020/12/12 06:52:27;;;;;;;2.42;2.30;;;;;;;4.05;78.07;98711.41;4320669;33;35356;-83
2020/12/12 06:55:22;;;;;;;4.07;2.15;;;;;;;3.77;78.81;98722.56;4337384;33;32464;-83
2020/12/12 06:57:55;;;;;;;0.82;0.40;;;;;;;3.80;78.30;98724.12;4321808;33;33192;-83
2020/12/12 07:00:32;;;;;;;3.25;2.37;;;;;;;3.89;78.65;98728.63;4330568;33;35723;-83
2020/12/12 07:03:02;;;;;;;9.90;2.40;;;;;;;3.63;79.69;98730.78;4308208;33;33356;-83
2020/12/12 07:05:37;;;;;;;0.73;0.70;;;;;;;3.58;79.41;98719.81;4332305;33;33203;-83
2020/12/12 07:08:08;;;;;;;2.12;2.03;;;;;;;3.40;80.26;98728.41;4323279;33;31715;-83
2020/12/12 07:10:40;;;;;;;1.17;1.12;;;;;;;3.28;80.92;98726.75;4317071;33;33374;-84
2020/12/12 07:13:10;;;;;;;0.55;0.55;;;;;;;3.48;80.07;98729.41;4333424;33;32758;-83
2020/12/12 07:15:38;;;;;;;1.27;0.98;;;;;;;3.58;79.11;98729.50;4327823;33;34186;-82
2020/12/12 07:18:08;;;;;;;1.08;0.98;;;;;;;3.49;79.63;98736.34;4342810;33;32904;-83
2020/12/12 07:20:43;;;;;;;1.70;1.65;;;;;;;3.59;79.31;98741.69;4339674;33;34412;-83
2020/12/12 07:23:11;;;;;;;2.03;1.83;;;;;;;3.73;78.70;98741.38;4332030;33;34408;-83
2020/12/12 07:25:40;;;;;;;2.20;2.00;;;;;;;3.65;78.94;98751.69;4342970;33;33230;-83
2020/12/12 07:28:08;;;;;;;2.12;1.90;;;;;;;3.37;79.33;98744.41;4331990;33;32310;-83
2020/12/12 07:30:35;;;;;;;0.52;0.52;;;;;;;3.71;77.97;98751.19;4336731;33;34788;-83
2020/12/12 07:33:03;;;;;;;0.65;0.45;;;;;;;3.63;78.33;98750.97;4320763;33;34386;-83
2020/12/12 07:35:31;;;;;;;1.05;0.62;;;;;;;3.87;77.89;98748.97;4326233;33;33208;-83
2020/12/12 07:38:05;;;;;;;1.92;1.83;;;;;;;3.69;77.88;98751.31;4331905;33;34291;-83
2020/12/12 07:40:34;;;;;;;3.00;2.80;;;;;;;3.76;78.12;98741.97;4319279;33;35541;-84
2020/12/12 07:43:06;;;;;;;1.85;1.75;;;;;;;3.68;78.51;98748.81;4316874;33;33278;-83
2020/12/12 07:48:12;;;;;;;5.93;3.20;;;;;;;3.62;79.06;98747.50;4331589;33;33858;-84
2020/12/12 07:50:40;;;;;;;3.35;3.10;;;;;;;3.51;79.36;98741.50;4336234;33;35845;-84
2020/12/12 07:53:09;;;;;;;2.35;1.85;;;;;;;3.53;79.51;98736.94;4319400;33;34475;-85
2020/12/12 07:55:44;;;;;;;2.72;2.37;;;;;;;3.65;79.28;98741.16;4319674;33;33863;-85
2020/12/12 07:58:16;;;;;;;2.05;1.95;;;;;;;3.75;78.45;98744.69;4331060;33;32400;-85
2020/12/12 08:00:44;;;;;;;1.08;0.98;;;;;;;3.82;79.00;98748.50;4318772;33;34311;-85
2020/12/12 08:03:11;;;;;;;;;;;;;;;3.95;78.31;98755.25;4330878;33;35220;-84
2020/12/12 08:05:39;;;;;;;2.47;1.55;;;;;;;3.82;78.35;98751.97;4332463;33;33212;-85
2020/12/12 08:08:10;;;;;;;2.62;2.53;;;;;;;3.74;78.29;98743.87;4319239;33;33369;-84
2020/12/12 08:10:39;;;;;;;2.05;1.87;;;;;;;3.42;80.10;98742.25;4319251;33;35479;-84
2020/12/12 08:13:06;;;;;;;2.12;1.55;;;;;;;3.51;79.91;98752.00;4330684;33;33362;-84
2020/12/12 08:15:38;;;;;;;4.87;2.95;;;;;;;3.77;78.92;98748.88;4318881;33;31975;-84
2020/12/12 08:18:11;;;;;;;1.75;1.65;;;;;;;3.61;79.55;98751.09;4331248;33;34791;-84
2020/12/12 08:20:38;;;;;;;4.50;3.55;;;;;;;3.83;78.59;98753.66;4331441;33;35873;-86
2020/12/12 08:23:10;;;;;;;5.55;5.12;;;;;;;3.71;79.22;98746.75;4331136;33;34218;-84
2020/12/12 08:25:38;;;;;;;13.32;5.32;;;;;;;3.83;78.70;98753.66;4321282;33;33921;-84
2020/12/12 08:28:07;;;;;;;10.27;5.43;;;;;;;3.93;78.48;98754.53;4333509;33;31643;-84
2020/12/12 08:30:35;;;;;;;5.15;4.43;;;;;;;4.28;77.52;98756.81;4333811;33;35853;-84
2020/12/12 08:33:12;;;;;;;5.45;3.42;;;;;;;4.04;78.29;98759.72;4323984;33;33618;-84
2020/12/12 08:35:53;;;;;;;11.18;4.15;;;;;;;3.85;77.98;98764.00;4321262;33;33553;-84
2020/12/12 08:38:22;;;;;;;7.07;6.40;;;;;;;3.91;78.45;98759.09;4321606;33;33112;-84
2020/12/12 08:40:49;;;;;;;6.25;3.40;;;;;;;3.97;78.25;98770.91;4321929;33;35461;-84
2020/12/12 08:43:21;;;;;;;4.07;2.95;;;;;;;3.81;78.82;98778.41;4321069;33;34125;-84
2020/12/12 08:45:59;;;;;;;4.47;3.10;;;;;;;3.98;77.96;98773.41;4322013;33;32578;-84
2020/12/12 08:48:32;;;;;;;3.17;2.15;;;;;;;3.86;77.98;98777.06;4334195;33;33583;-84
2020/12/12 08:51:01;;;;;;;3.37;3.10;;;;;;;3.80;78.19;98774.09;4320686;33;34562;-84
2020/12/12 08:53:34;;;;;;;6.70;3.12;;;;;;;3.80;78.41;98776.72;4309069;33;33655;-84
2020/12/12 08:56:27;;;;;;;4.78;3.45;;;;;;;3.87;78.42;98783.16;4334101;33;33720;-84
2020/12/12 08:59:00;;;;;;;3.95;3.60;;;;;;;4.21;76.88;98780.22;4321552;33;33686;-85
2020/12/12 09:01:28;;;;;;;6.25;3.97;;;;;;;3.95;77.97;98775.44;4333699;33;34793;-84
2020/12/12 09:03:57;;;;;;;3.70;3.45;;;;;;;4.30;77.05;98781.22;4335046;33;34810;-84
2020/12/12 09:06:28;;;;;;;5.75;5.22;;;;;;;4.06;77.77;98773.59;4333156;33;33253;-84
2020/12/12 09:09:07;;;;;;;9.75;5.45;;;;;;;3.99;78.16;98777.69;4333876;33;33244;-84
2020/12/12 09:11:36;;;;;;;4.82;4.18;;;;;;;3.93;78.57;98767.69;4334090;33;33785;-84
2020/12/12 09:14:05;;;;;;;4.28;4.00;;;;;;;3.88;78.43;98774.31;4321681;33;33294;-84
2020/12/12 09:16:33;;;;;;;3.60;2.20;;;;;;;3.80;78.92;98774.91;4323250;33;34383;-84
2020/12/12 09:19:01;;;;;;;5.43;3.45;;;;;;;3.77;79.15;98769.91;4336899;33;33688;-84
2020/12/12 09:21:31;;;;;;;4.78;3.08;;;;;;;4.04;78.05;98775.53;4321985;33;35725;-84
2020/12/12 09:23:58;;;;;;;3.37;1.60;;;;;;;3.92;78.47;98773.06;4308653;33;32534;-84
2020/12/12 09:26:26;;;;;;;6.90;4.80;;;;;;;3.92;78.62;98773.06;4343710;33;33198;-84
2020/12/12 09:28:53;;;;;;;4.75;3.78;;;;;;;4.17;77.54;98777.97;4343445;33;34108;-85
2020/12/12 09:31:22;;;;;;;4.45;3.45;;;;;;;4.25;77.40;98773.72;4344996;33;35586;-84
2020/12/12 09:33:50;;;;;;;4.18;3.87;;;;;;;4.00;77.59;98775.91;4332904;33;33742;-84
2020/12/12 09:36:18;;;;;;;3.22;3.00;;;;;;;3.99;78.09;98774.25;4330937;33;32576;-83
2020/12/12 09:38:46;;;;;;;3.92;3.60;;;;;;;4.36;76.89;98760.47;4332674;33;33453;-83
2020/12/12 09:41:14;;;;;;;2.30;1.75;;;;;;;4.31;76.89;98762.66;4320517;33;33824;-83
2020/12/12 09:43:42;;;;;;;2.50;2.40;;;;;;;4.55;76.04;98750.03;4330696;33;34179;-83
2020/12/12 09:46:09;;;;;;;;;;;;;;;4.41;76.38;98760.91;4328118;33;32396;-83
2020/12/12 09:48:38;;;;;;;4.43;3.78;;;;;;;4.39;76.50;98756.75;4318311;33;33403;-83
2020/12/12 09:51:08;;;;;;;3.08;2.67;;;;;;;4.45;76.71;98757.03;4328538;33;34824;-83
2020/12/12 09:53:35;;;;;;;6.68;3.03;;;;;;;4.29;77.34;98748.81;4320119;33;35018;-83
2020/12/12 09:56:03;;;;;;;2.97;1.83;;;;;;;4.58;75.84;98741.03;4332474;33;33310;-83
2020/12/12 09:58:32;;;;;;;1.10;1.08;;;;;;;4.59;75.85;98733.00;4332338;33;33328;-83
2020/12/12 10:00:59;;;;;;;;;;;;;;;4.70;75.57;98732.91;4332651;33;34975;-83
2020/12/12 10:03:27;;;;;;;3.97;2.45;;;;;;;4.89;74.82;98740.06;4307659;33;35406;-83
2020/12/12 10:05:54;;;;;;;4.07;2.87;;;;;;;4.63;75.58;98736.22;4320343;33;31977;-83
2020/12/12 10:08:22;;;;;;;4.60;4.18;;;;;;;4.58;76.21;98733.97;4307995;33;33399;-83
2020/12/12 10:10:52;;;;;;;4.05;3.70;;;;;;;4.73;75.70;98730.00;4308337;33;34205;-83
2020/12/12 10:13:20;;;;;;;2.37;1.83;;;;;;;4.90;74.96;98731.19;4319560;33;32526;-83
2020/12/12 10:15:48;;;;;;;4.65;3.42;;;;;;;4.48;76.34;98730.47;4320203;33;33265;-83
2020/12/12 10:18:16;;;;;;;0.95;0.85;;;;;;;4.06;77.73;98730.66;4319874;33;33357;-83
2020/12/12 10:20:46;;;;;;;9.15;3.83;;;;;;;4.42;76.94;98724.91;4332010;33;34441;-84
2020/12/12 10:23:13;;;;;;;4.80;4.35;;;;;;;4.45;77.25;98729.91;4307938;33;33459;-84
2020/12/12 10:25:41;;;;;;;2.40;2.30;;;;;;;4.67;76.69;98725.28;4332586;33;33416;-83
2020/12/12 10:28:10;;;;;;;2.28;2.12;;;;;;;4.67;76.37;98722.66;4320290;33;32294;-83
2020/12/12 10:30:38;;;;;;;3.65;3.25;;;;;;;4.55;76.55;98730.78;4308353;33;36020;-83
2020/12/12 10:33:10;;;;;;;1.75;1.48;;;;;;;4.57;77.08;98727.03;4319834;33;32693;-83
2020/12/12 10:35:38;;;;;;;3.15;2.03;;;;;;;4.83;76.23;98733.50;4319594;33;33717;-84
2020/12/12 10:38:06;;;;;;;3.87;3.25;;;;;;;4.83;75.82;98737.94;4320177;33;34705;-83
2020/12/12 10:43:05;;;;;;;3.75;3.37;;;;;;;5.05;75.24;98732.44;4321990;33;34526;-84
2020/12/12 10:45:33;;;;;;;2.33;1.15;;;;;;;4.94;75.86;98733.41;4331512;33;31567;-84
2020/12/12 10:48:01;;;;;;;4.85;3.75;;;;;;;5.01;75.41;98728.41;4331466;33;31966;-83
2020/12/12 10:50:29;;;;;;;10.88;3.97;;;;;;;5.11;74.57;98743.31;4330793;33;35579;-84
2020/12/12 10:52:59;;;;;;;4.22;2.20;;;;;;;4.95;75.56;98731.59;4336746;33;34056;-83
2020/12/12 10:55:26;;;;;;;6.47;5.22;;;;;;;4.65;76.04;98735.13;4330374;33;33359;-83
2020/12/12 10:57:54;;;;;;;2.33;1.27;;;;;;;4.86;75.82;98735.03;4318263;33;34204;-83
2020/12/12 11:00:26;;;;;;;2.42;2.08;;;;;;;4.79;76.24;98744.47;4330209;33;34836;-83
2020/12/12 11:02:53;;;;;;;4.68;2.92;;;;;;;5.03;75.41;98737.03;4307027;33;33854;-83
2020/12/12 11:05:21;;;;;;;1.75;1.65;;;;;;;5.03;75.58;98737.88;4319029;33;31818;-83
2020/12/12 11:07:52;;;;;;;4.18;1.80;;;;;;;5.25;74.71;98732.34;4331548;33;33396;-82
2020/12/12 11:10:20;;;;;;;2.33;2.15;;;;;;;4.97;75.73;98729.66;4328750;33;33367;-83
2020/12/12 11:12:51;;;;;;;1.62;1.20;;;;;;;4.88;75.54;98728.66;4330880;33;34294;-83
2020/12/12 11:15:19;;;;;;;2.28;2.15;;;;;;;4.53;77.49;98733.53;4318496;33;32037;-83
2020/12/12 11:17:47;;;;;;;2.08;1.70;;;;;;;4.73;76.68;98734.44;4330599;33;33884;-83
2020/12/12 11:20:15;;;;;;;2.00;1.87;;;;;;;4.61;77.47;98736.34;4330590;33;34968;-83
2020/12/12 11:22:43;;;;;;;4.82;3.22;;;;;;;4.75;76.83;98730.72;4306298;33;36182;-83
2020/12/12 11:25:11;;;;;;;1.87;1.77;;;;;;;5.02;75.86;98730.94;4330616;33;33625;-83
2020/12/12 11:27:40;;;;;;;5.95;3.58;;;;;;;4.84;76.65;98726.44;4330092;33;34482;-84
2020/12/12 11:30:10;;;;;;;3.15;2.17;;;;;;;4.92;76.85;98731.88;4328432;33;34882;-83
2020/12/12 11:32:39;;;;;;;2.95;2.75;;;;;;;5.00;76.10;98724.94;4331855;33;34997;-84
2020/12/12 11:40:38;;;;;;;4.65;4.22;;;;;;;5.33;74.39;98710.56;4331589;33;35128;-83
2020/12/12 11:46:15;;;;;;;0.90;0.90;;;;;;;5.02;76.19;98723.03;4318275;33;31857;-83
2020/12/12 11:48:45;;;;;;;3.35;2.92;;;;;;;5.11;76.11;98730.13;4321854;33;33945;-83
2020/12/12 11:51:13;;;;;;;7.45;3.42;;;;;;;5.04;76.34;98726.34;4319226;33;36009;-83
2020/12/12 11:53:40;;;;;;;3.70;3.40;;;;;;;5.22;75.69;98714.16;4319683;33;32390;-83
2020/12/12 11:56:08;;;;;;;5.18;2.42;;;;;;;5.15;75.63;98714.84;4330812;33;31108;-83
2020/12/12 11:58:36;;;;;;;3.33;2.35;;;;;;;5.22;75.47;98713.31;4331685;33;34752;-83
2020/12/12 12:01:04;;;;;;;;;;;;;;;5.24;75.68;98704.31;4335055;33;33712;-83
2020/12/12 12:03:32;;;;;;;2.47;2.28;;;;;;;5.46;75.49;98717.22;4321146;33;34540;-83
2020/12/12 12:05:59;;;;;;;2.97;2.75;;;;;;;5.42;75.13;98715.84;4334618;33;33590;-84
2020/12/12 12:08:49;;;;;;;1.90;1.77;;;;;;;5.25;75.91;98707.75;4333707;33;34532;-83